createdAt,value
2022-10-30T00:00:36.667Z,14.00
2022-10-30T00:03:03.648Z,17.58
2022-10-30T00:05:30.373Z,22.67
2022-10-30T00:07:57.658Z,19.63
2022-10-30T00:10:24.939Z,12.27
2022-10-30T00:12:51.728Z,16.65
2022-10-30T00:15:18.276Z,16.17
2022-10-30T00:17:44.765Z,16.90
2022-10-30T00:20:11.321Z,15.52
2022-10-30T00:22:37.842Z,18.95
2022-10-30T00:25:04.809Z,17.92
2022-10-30T00:27:31.376Z,17.67
2022-10-30T00:29:57.815Z,11.63
2022-10-30T00:32:24.290Z,16.50
2022-10-30T00:34:50.891Z,16.67
2022-10-30T00:37:17.375Z,12.45
2022-10-30T00:39:43.866Z,13.80
2022-10-30T00:42:14.118Z,15.02
2022-10-30T00:44:40.604Z,18.20
2022-10-30T00:47:12.017Z,14.75
2022-10-30T00:49:41.675Z,17.90
2022-10-30T00:52:09.517Z,14.32
2022-10-30T00:54:36.645Z,13.30
2022-10-30T00:57:04.498Z,14.98
2022-10-30T00:59:32.869Z,13.32
2022-10-30T01:02:00.721Z,18.83
2022-10-30T01:04:30.150Z,13.02
2022-10-30T01:06:57.437Z,15.75
2022-10-30T01:09:24.001Z,11.77
2022-10-30T01:11:50.500Z,16.40
2022-10-30T01:14:18.517Z,14.48
2022-10-30T01:16:58.021Z,13.15
2022-10-30T01:19:42.989Z,10.98
2022-10-30T01:22:24.839Z,15.43
2022-10-30T01:25:10.128Z,12.27
2022-10-30T01:27:36.555Z,11.23
2022-10-30T01:30:08.014Z,16.63
2022-10-30T01:32:43.729Z,9.13
2022-10-30T01:35:29.259Z,10.98
2022-10-30T01:38:00.110Z,13.68
2022-10-30T01:40:26.854Z,8.30
2022-10-30T01:42:54.468Z,13.30
2022-10-30T01:45:38.650Z,13.23
2022-10-30T01:50:50.045Z,10.20
2022-10-30T01:53:34.904Z,7.25
2022-10-30T01:56:14.964Z,9.88
2022-10-30T01:58:44.650Z,10.38
2022-10-30T02:01:11.667Z,13.65
2022-10-30T02:03:38.677Z,12.05
2022-10-30T02:06:05.507Z,11.30
2022-10-30T02:08:32.067Z,14.55
2022-10-30T02:10:59.058Z,9.55
2022-10-30T02:13:25.525Z,11.13
2022-10-30T02:15:51.991Z,11.32
2022-10-30T02:18:18.530Z,13.98
2022-10-30T02:20:45.087Z,12.13
2022-10-30T02:23:18.863Z,12.00
2022-10-30T02:25:45.836Z,23.10
2022-10-30T02:28:12.610Z,11.07
2022-10-30T02:30:39.634Z,9.93
2022-10-30T02:33:06.290Z,12.40
2022-10-30T02:35:35.377Z,11.40
2022-10-30T02:38:02.238Z,10.85
2022-10-30T02:40:28.990Z,10.10
2022-10-30T02:42:55.614Z,18.35
2022-10-30T02:45:22.298Z,14.32
2022-10-30T02:47:48.810Z,15.07
2022-10-30T02:50:15.423Z,9.65
2022-10-30T02:52:41.984Z,15.98
2022-10-30T02:55:08.681Z,14.27
2022-10-30T02:57:35.169Z,14.18
2022-10-30T03:00:01.721Z,9.00
2022-10-30T03:02:28.177Z,10.55
2022-10-30T03:04:54.749Z,13.20
2022-10-30T03:07:21.223Z,9.77
2022-10-30T03:09:48.597Z,15.32
2022-10-30T03:12:15.061Z,10.93
2022-10-30T03:14:41.521Z,11.85
2022-10-30T03:17:07.976Z,12.80
2022-10-30T03:19:35.706Z,9.90
2022-10-30T03:22:02.228Z,10.40
2022-10-30T03:24:28.679Z,11.70
2022-10-30T03:26:55.170Z,10.85
2022-10-30T03:29:21.645Z,19.98
2022-10-30T03:31:48.113Z,13.70
2022-10-30T03:34:14.679Z,12.32
2022-10-30T03:36:41.186Z,11.57
2022-10-30T03:39:07.730Z,9.93
2022-10-30T03:41:34.293Z,10.40
2022-10-30T03:44:00.806Z,13.38
2022-10-30T03:46:27.271Z,12.93
2022-10-30T03:48:54.499Z,11.30
2022-10-30T03:51:20.937Z,10.52
2022-10-30T03:53:47.441Z,13.52
2022-10-30T03:56:13.932Z,13.52
2022-10-30T03:58:40.444Z,9.38
2022-10-30T04:01:07.397Z,15.15
2022-10-30T04:03:34.104Z,10.55
2022-10-30T04:06:00.949Z,14.45
2022-10-30T04:08:27.475Z,10.70
2022-10-30T04:10:54.148Z,13.00
2022-10-30T04:13:20.754Z,8.60
2022-10-30T04:15:54.201Z,16.98
2022-10-30T04:18:23.853Z,19.88
2022-10-30T04:20:50.387Z,13.75
2022-10-30T04:23:18.257Z,11.98
2022-10-30T04:25:45.033Z,10.65
2022-10-30T04:28:11.527Z,12.70
2022-10-30T04:30:39.573Z,10.73
2022-10-30T04:33:07.319Z,11.43
2022-10-30T04:35:34.951Z,12.85
2022-10-30T04:38:02.326Z,12.20
2022-10-30T04:40:29.994Z,12.98
2022-10-30T04:42:56.810Z,11.40
2022-10-30T04:45:23.732Z,11.02
2022-10-30T04:47:50.252Z,18.02
2022-10-30T04:50:17.173Z,10.30
2022-10-30T04:52:43.720Z,12.23
2022-10-30T04:55:11.156Z,9.95
2022-10-30T04:57:38.158Z,10.75
2022-10-30T05:00:05.244Z,12.35
2022-10-30T05:02:31.945Z,8.40
2022-10-30T05:04:58.542Z,13.82
2022-10-30T05:07:25.090Z,8.75
2022-10-30T05:09:51.551Z,13.10
2022-10-30T05:12:19.622Z,13.10
2022-10-30T05:14:46.054Z,12.20
2022-10-30T05:17:12.505Z,8.65
2022-10-30T05:19:40.290Z,11.20
2022-10-30T05:22:06.847Z,10.57
2022-10-30T05:24:33.631Z,17.45
2022-10-30T05:27:00.088Z,17.23
2022-10-30T05:29:26.564Z,11.23
2022-10-30T05:31:53.001Z,10.82
2022-10-30T05:34:19.471Z,16.25
2022-10-30T05:36:45.926Z,14.05
2022-10-30T05:39:12.511Z,13.00
2022-10-30T05:41:39.017Z,14.15
2022-10-30T05:44:05.631Z,14.60
2022-10-30T05:46:32.095Z,8.32
2022-10-30T05:49:00.653Z,13.18
2022-10-30T05:51:27.151Z,11.40
2022-10-30T05:53:53.660Z,15.27
2022-10-30T05:56:20.115Z,13.82
2022-10-30T05:58:48.427Z,19.13
2022-10-30T06:01:14.899Z,12.27
2022-10-30T06:03:41.738Z,12.07
2022-10-30T06:06:08.262Z,15.20
2022-10-30T06:08:34.733Z,9.25
2022-10-30T06:11:01.231Z,9.48
2022-10-30T06:13:27.937Z,15.05
2022-10-30T06:15:54.989Z,19.02
2022-10-30T06:18:21.864Z,12.35
2022-10-30T06:20:48.510Z,16.13
2022-10-30T06:23:15.298Z,16.10
2022-10-30T06:25:41.818Z,9.68
2022-10-30T06:28:09.569Z,12.32
2022-10-30T06:30:36.123Z,15.45
2022-10-30T06:33:04.046Z,20.30
2022-10-30T06:35:31.056Z,11.73
2022-10-30T06:38:01.774Z,17.75
2022-10-30T06:40:30.242Z,12.95
2022-10-30T06:42:57.605Z,15.93
2022-10-30T06:45:25.153Z,12.73
2022-10-30T06:47:52.357Z,19.23
2022-10-30T06:50:19.937Z,16.08
2022-10-30T06:52:46.501Z,16.48
2022-10-30T06:55:13.072Z,16.17
2022-10-30T06:57:39.680Z,15.13
2022-10-30T07:00:07.196Z,16.95
2022-10-30T07:02:33.891Z,20.45
2022-10-30T07:05:00.403Z,12.63
2022-10-30T07:07:26.857Z,22.65
2022-10-30T07:09:53.338Z,10.63
2022-10-30T07:12:19.813Z,14.98
2022-10-30T07:14:46.360Z,15.07
2022-10-30T07:17:12.865Z,20.75
2022-10-30T07:19:39.347Z,18.00
2022-10-30T07:22:05.917Z,14.80
2022-10-30T07:24:32.386Z,19.27
2022-10-30T07:26:58.888Z,11.35
2022-10-30T07:29:25.349Z,18.17
2022-10-30T07:32:02.324Z,13.38
2022-10-30T07:34:29.836Z,15.02
2022-10-30T07:36:56.322Z,12.73
2022-10-30T07:39:22.805Z,21.05
2022-10-30T07:41:50.680Z,11.57
2022-10-30T07:44:17.360Z,17.33
2022-10-30T07:46:43.902Z,16.55
2022-10-30T07:49:10.449Z,13.60
2022-10-30T07:51:36.944Z,15.27
2022-10-30T07:54:03.490Z,19.80
2022-10-30T07:56:29.948Z,16.65
2022-10-30T07:58:56.454Z,15.85
2022-10-30T08:01:23.123Z,18.02
2022-10-30T08:03:49.649Z,10.18
2022-10-30T08:06:16.082Z,11.13
2022-10-30T08:08:43.624Z,10.52
2022-10-30T08:11:10.228Z,8.60
2022-10-30T08:13:36.755Z,15.15
2022-10-30T08:16:03.192Z,12.32
2022-10-30T08:18:29.691Z,10.68
2022-10-30T08:20:56.130Z,9.52
2022-10-30T08:23:23.205Z,11.68
2022-10-30T08:25:49.701Z,13.20
2022-10-30T08:28:16.233Z,7.30
2022-10-30T08:30:42.789Z,18.10
2022-10-30T08:33:15.643Z,9.50
2022-10-30T08:35:49.158Z,10.48
2022-10-30T08:38:15.687Z,10.55
2022-10-30T08:40:42.287Z,11.73
2022-10-30T08:43:09.171Z,10.90
2022-10-30T08:45:35.931Z,17.58
2022-10-30T08:48:06.235Z,13.73
2022-10-30T08:50:33.508Z,10.18
2022-10-30T08:53:04.415Z,12.07
2022-10-30T08:55:31.665Z,13.32
2022-10-30T08:57:58.502Z,10.95
2022-10-30T09:00:25.409Z,13.48
2022-10-30T09:02:52.036Z,11.57
2022-10-30T09:05:18.875Z,13.68
2022-10-30T09:07:45.659Z,13.32
2022-10-30T09:10:12.408Z,9.80
2022-10-30T09:12:39.250Z,11.55
2022-10-30T09:15:06.199Z,11.77
2022-10-30T09:17:32.772Z,11.00
2022-10-30T09:19:59.312Z,12.63
2022-10-30T09:22:25.932Z,9.35
2022-10-30T09:24:52.530Z,14.18
2022-10-30T09:27:19.060Z,13.45
2022-10-30T09:29:45.556Z,13.18
2022-10-30T09:32:12.047Z,17.83
2022-10-30T09:34:39.714Z,12.15
2022-10-30T09:37:06.157Z,10.85
2022-10-30T09:39:32.713Z,12.27
2022-10-30T09:42:02.140Z,13.15
2022-10-30T09:44:56.509Z,17.08
2022-10-30T09:47:39.878Z,12.93
2022-10-30T09:50:29.533Z,16.08
2022-10-30T09:53:16.268Z,11.90
2022-10-30T09:55:46.544Z,14.82
2022-10-30T09:58:37.827Z,13.98
2022-10-30T10:01:37.011Z,21.42
2022-10-30T10:04:09.619Z,11.35
2022-10-30T10:06:37.379Z,16.00
2022-10-30T10:09:06.419Z,13.23
2022-10-30T10:11:36.114Z,15.88
2022-10-30T10:14:10.581Z,17.80
2022-10-30T10:16:39.470Z,23.60
2022-10-30T10:19:12.194Z,19.77
2022-10-30T10:21:43.738Z,16.85
2022-10-30T10:24:19.616Z,16.02
2022-10-30T10:26:54.245Z,13.23
2022-10-30T10:29:20.760Z,11.40
2022-10-30T10:31:59.581Z,13.35
2022-10-30T10:34:31.274Z,10.32
2022-10-30T10:37:00.100Z,17.20
2022-10-30T10:39:37.372Z,16.67
2022-10-30T10:42:08.175Z,17.02
2022-10-30T10:45:07.444Z,11.25
2022-10-30T10:47:33.875Z,12.18
2022-10-30T10:50:19.290Z,13.65
2022-10-30T10:52:48.516Z,10.27
2022-10-30T10:55:24.910Z,15.48
2022-10-30T10:57:53.751Z,11.82
2022-10-30T11:00:21.494Z,10.75
2022-10-30T11:03:06.863Z,12.55
2022-10-30T11:05:40.074Z,9.40
2022-10-30T11:08:18.295Z,12.18
2022-10-30T11:10:46.436Z,12.68
2022-10-30T11:13:14.776Z,10.80
2022-10-30T11:15:59.818Z,12.07
2022-10-30T11:18:26.336Z,14.02
2022-10-30T11:20:55.545Z,11.30
2022-10-30T11:23:31.241Z,6.82
2022-10-30T11:25:57.713Z,11.90
2022-10-30T11:28:48.813Z,14.60
2022-10-30T11:31:18.287Z,10.13
2022-10-30T11:33:44.768Z,12.18
2022-10-30T11:36:15.618Z,13.65
2022-10-30T11:38:42.546Z,18.30
2022-10-30T11:41:12.146Z,14.38
2022-10-30T11:43:40.053Z,10.05
2022-10-30T11:46:11.824Z,16.08
2022-10-30T11:48:39.926Z,16.20
2022-10-30T11:51:06.669Z,14.35
2022-10-30T11:53:36.538Z,19.85
2022-10-30T11:56:04.384Z,20.73
2022-10-30T11:58:33.029Z,16.85
2022-10-30T12:01:07.897Z,17.83
2022-10-30T12:03:36.061Z,15.82
2022-10-30T12:06:17.999Z,15.90
2022-10-30T12:08:58.542Z,12.57
2022-10-30T12:11:28.265Z,19.10
2022-10-30T12:13:55.147Z,11.18
2022-10-30T12:16:21.797Z,16.30
2022-10-30T12:19:00.557Z,19.27
2022-10-30T12:21:28.127Z,17.65
2022-10-30T12:24:01.404Z,15.98
2022-10-30T12:26:28.388Z,8.00
2022-10-30T12:29:03.276Z,21.95
2022-10-30T12:31:41.322Z,12.60
2022-10-30T12:34:26.721Z,13.48
2022-10-30T12:37:12.296Z,15.15
2022-10-30T12:39:46.237Z,12.95
2022-10-30T12:44:41.998Z,10.85
2022-10-30T12:47:08.496Z,15.35
2022-10-30T12:49:50.459Z,14.30
2022-10-30T12:52:30.179Z,13.27
2022-10-30T12:54:56.604Z,16.88
2022-10-30T12:57:27.088Z,17.65
2022-10-30T13:00:06.782Z,13.27
2022-10-30T13:02:39.196Z,17.92
2022-10-30T13:05:27.972Z,8.93
2022-10-30T13:08:04.681Z,11.65
2022-10-30T13:10:32.789Z,16.52
2022-10-30T13:13:03.107Z,15.65
2022-10-30T13:15:36.114Z,14.98
2022-10-30T13:18:11.341Z,15.17
2022-10-30T13:20:46.237Z,18.00
2022-10-30T13:23:16.515Z,15.20
2022-10-30T13:25:48.788Z,11.75
2022-10-30T13:28:29.393Z,15.88
2022-10-30T13:31:07.577Z,16.67
2022-10-30T13:33:44.347Z,12.43
2022-10-30T13:36:10.809Z,18.30
2022-10-30T13:38:43.307Z,11.02
2022-10-30T13:41:45.477Z,12.00
2022-10-30T13:44:11.902Z,11.90
2022-10-30T13:47:07.920Z,9.32
2022-10-30T13:49:46.261Z,15.90
2022-10-30T13:52:14.318Z,17.15
2022-10-30T13:54:45.034Z,16.52
2022-10-30T13:57:20.430Z,21.20
2022-10-30T13:59:57.678Z,13.98
2022-10-30T14:02:36.524Z,11.18
2022-10-30T14:05:38.749Z,11.95
2022-10-30T14:08:25.397Z,15.35
2022-10-30T14:10:57.507Z,14.27
2022-10-30T14:13:27.997Z,21.90
2022-10-30T14:15:54.501Z,9.30
2022-10-30T14:18:25.676Z,14.70
2022-10-30T14:20:53.266Z,10.57
2022-10-30T14:23:19.753Z,15.63
2022-10-30T14:26:05.221Z,20.10
2022-10-30T14:28:32.586Z,14.20
2022-10-30T14:31:10.343Z,18.08
2022-10-30T14:33:39.842Z,19.00
2022-10-30T14:36:17.189Z,22.65
2022-10-30T14:38:52.888Z,19.67
2022-10-30T14:41:27.088Z,17.75
2022-10-30T14:44:06.366Z,19.45
2022-10-30T14:47:02.312Z,18.63
2022-10-30T14:49:36.270Z,18.48
2022-10-30T14:54:33.851Z,14.85
2022-10-30T14:57:00.391Z,14.18
2022-10-30T14:59:35.940Z,14.73
2022-10-30T15:02:02.445Z,11.85
2022-10-30T15:04:38.474Z,9.93
2022-10-30T15:07:17.379Z,19.52
2022-10-30T15:09:43.847Z,12.57
2022-10-30T15:12:19.700Z,15.45
2022-10-30T15:14:54.823Z,17.08
2022-10-30T15:17:28.381Z,17.08
2022-10-30T15:19:55.261Z,23.13
2022-10-30T15:22:23.457Z,18.75
2022-10-30T15:24:50.942Z,15.88
2022-10-30T15:27:19.050Z,21.52
2022-10-30T15:29:48.911Z,16.85
2022-10-30T15:32:16.631Z,18.98
2022-10-30T15:34:53.513Z,22.83
2022-10-30T15:37:20.145Z,19.52
2022-10-30T15:39:46.622Z,17.48
2022-10-30T15:42:13.356Z,10.32
2022-10-30T15:44:41.478Z,13.05
2022-10-30T15:47:13.738Z,24.63
2022-10-30T15:49:41.600Z,22.15
2022-10-30T15:52:19.977Z,17.65
2022-10-30T15:54:48.445Z,19.02
2022-10-30T15:57:49.379Z,23.10
2022-10-30T16:00:08.072Z,9.93
2022-10-30T16:02:36.542Z,16.35
2022-10-30T16:05:18.735Z,18.52
2022-10-30T16:07:47.610Z,16.92
2022-10-30T16:10:20.919Z,21.23
2022-10-30T16:12:47.870Z,17.17
2022-10-30T16:15:25.930Z,14.60
2022-10-30T16:18:07.320Z,17.55
2022-10-30T16:20:34.774Z,18.60
2022-10-30T16:23:02.405Z,16.52
2022-10-30T16:25:29.005Z,17.55
2022-10-30T16:27:55.507Z,14.55
2022-10-30T16:30:23.917Z,13.55
2022-10-30T16:32:52.612Z,12.93
2022-10-30T16:35:20.469Z,19.50
2022-10-30T16:37:47.194Z,18.17
2022-10-30T16:40:18.239Z,15.57
2022-10-30T16:42:58.696Z,18.90
2022-10-30T16:45:28.157Z,15.07
2022-10-30T16:48:08.509Z,15.23
2022-10-30T16:50:37.034Z,18.77
2022-10-30T16:53:07.825Z,15.77
2022-10-30T16:55:38.060Z,20.17
2022-10-30T16:58:04.594Z,19.17
2022-10-30T17:00:36.684Z,19.35
2022-10-30T17:03:07.839Z,19.38
2022-10-30T17:05:35.436Z,21.42
2022-10-30T17:08:04.418Z,25.92
2022-10-30T17:10:51.169Z,18.48
2022-10-30T17:13:36.612Z,13.98
2022-10-30T17:16:24.949Z,16.58
2022-10-30T17:18:53.061Z,25.52
2022-10-30T17:21:39.770Z,49.10
2022-10-30T17:24:06.503Z,22.80
2022-10-30T17:26:36.850Z,20.98
2022-10-30T17:29:03.442Z,49.38
2022-10-30T17:31:31.902Z,23.75
2022-10-30T17:34:19.892Z,29.27
2022-10-30T17:36:47.340Z,40.05
2022-10-30T17:39:14.337Z,26.45
2022-10-30T17:41:41.176Z,17.80
2022-10-30T17:44:11.226Z,33.42
2022-10-30T17:46:37.795Z,33.05
2022-10-30T17:49:06.253Z,22.27
2022-10-30T17:51:32.833Z,20.48
2022-10-30T17:53:59.547Z,18.98
2022-10-30T17:56:27.997Z,13.38
2022-10-30T17:58:54.650Z,12.75
2022-10-30T18:01:23.797Z,17.10
2022-10-30T18:03:51.072Z,17.23
2022-10-30T18:06:18.999Z,12.10
2022-10-30T18:08:49.602Z,13.90
2022-10-30T18:11:21.518Z,12.20
2022-10-30T18:13:48.709Z,11.90
2022-10-30T18:16:16.084Z,11.75
2022-10-30T18:18:42.582Z,13.82
2022-10-30T18:21:13.610Z,13.95
2022-10-30T18:23:52.487Z,9.15
2022-10-30T18:26:20.964Z,14.35
2022-10-30T18:28:47.488Z,11.90
2022-10-30T18:31:15.210Z,13.43
2022-10-30T18:33:42.607Z,7.28
2022-10-30T18:36:13.710Z,10.77
2022-10-30T18:38:40.357Z,10.10
2022-10-30T18:41:11.339Z,9.52
2022-10-30T18:43:40.272Z,12.65
2022-10-30T18:46:12.860Z,10.30
2022-10-30T18:48:39.705Z,6.82
2022-10-30T18:51:06.718Z,9.27
2022-10-30T18:53:35.374Z,16.15
2022-10-30T18:56:03.037Z,11.23
2022-10-30T18:58:29.551Z,6.03
2022-10-30T19:01:11.511Z,9.15
2022-10-30T19:03:38.732Z,8.48
2022-10-30T19:06:06.372Z,7.38
2022-10-30T19:08:32.910Z,5.47
2022-10-30T19:10:59.521Z,6.78
2022-10-30T19:13:26.145Z,7.57
2022-10-30T19:15:59.870Z,9.18
2022-10-30T19:18:28.669Z,9.63
2022-10-30T19:21:04.596Z,10.38
2022-10-30T19:23:33.200Z,25.67
2022-10-30T19:26:00.019Z,6.18
2022-10-30T19:28:26.780Z,9.07
2022-10-30T19:30:54.914Z,7.47
2022-10-30T19:33:22.666Z,9.95
2022-10-30T19:36:01.106Z,6.03
2022-10-30T19:38:28.439Z,8.27
2022-10-30T19:40:54.938Z,8.23
2022-10-30T19:43:21.462Z,5.72
2022-10-30T19:45:51.306Z,7.50
2022-10-30T19:48:40.650Z,8.50
2022-10-30T19:51:09.403Z,3.95
2022-10-30T19:53:35.987Z,7.00
2022-10-30T19:56:02.461Z,8.63
2022-10-30T19:58:29.260Z,7.05
2022-10-30T20:00:55.870Z,10.45
2022-10-30T20:03:22.386Z,10.73
2022-10-30T20:05:52.227Z,5.57
2022-10-30T20:08:23.120Z,6.43
2022-10-30T20:10:49.609Z,6.93
2022-10-30T20:13:16.094Z,7.13
2022-10-30T20:15:42.607Z,23.60
2022-10-30T20:18:16.908Z,25.70
2022-10-30T20:20:50.491Z,36.13
2022-10-30T20:23:17.142Z,151.50
2022-10-30T20:25:44.230Z,88.97
2022-10-30T20:28:33.751Z,98.57
2022-10-30T20:31:00.301Z,75.55
2022-10-30T20:33:27.215Z,86.88
2022-10-30T20:35:57.114Z,20.42
2022-10-30T20:38:29.402Z,48.63
2022-10-30T20:40:56.966Z,49.80
2022-10-30T20:43:43.750Z,37.63
2022-10-30T20:46:10.378Z,22.35
2022-10-30T20:48:38.087Z,8.10
2022-10-30T20:51:04.976Z,8.85
2022-10-30T20:53:31.439Z,18.27
2022-10-30T20:55:58.091Z,14.35
2022-10-30T20:58:24.906Z,12.18
2022-10-30T21:00:53.723Z,24.98
2022-10-30T21:03:20.174Z,23.08
2022-10-30T21:05:46.726Z,14.05
2022-10-30T21:08:14.020Z,13.95
2022-10-30T21:10:40.932Z,9.95
2022-10-30T21:13:09.815Z,15.88
2022-10-30T21:15:40.373Z,15.05
2022-10-30T21:18:07.077Z,12.05
2022-10-30T21:20:33.630Z,10.55
2022-10-30T21:23:00.665Z,6.20
2022-10-30T21:25:27.125Z,13.43
2022-10-30T21:27:55.880Z,10.90
2022-10-30T21:30:22.392Z,13.20
2022-10-30T21:32:48.857Z,8.10
2022-10-30T21:35:15.549Z,18.52
2022-10-30T21:37:42.112Z,11.80
2022-10-30T21:45:25.407Z,6.93
2022-10-30T21:47:52.603Z,5.95
2022-10-30T21:50:19.380Z,7.97
2022-10-30T21:52:46.161Z,6.28
2022-10-30T21:55:12.774Z,6.78
2022-10-30T21:57:39.386Z,6.30
2022-10-30T22:00:08.637Z,4.80
2022-10-30T22:02:36.140Z,4.82
2022-10-30T22:05:02.798Z,8.68
2022-10-30T22:07:29.325Z,5.05
2022-10-30T22:09:55.869Z,7.75
2022-10-30T22:12:22.429Z,7.10
2022-10-30T22:14:48.977Z,7.00
2022-10-30T22:17:15.540Z,6.45
2022-10-30T22:19:42.070Z,4.22
2022-10-30T22:22:09.299Z,5.45
2022-10-30T22:24:35.908Z,6.57
2022-10-30T22:27:02.372Z,5.05
2022-10-30T22:29:28.850Z,8.15
2022-10-30T22:31:55.363Z,8.45
2022-10-30T22:34:21.840Z,4.72
2022-10-30T22:36:48.347Z,3.85
2022-10-30T22:39:14.901Z,4.38
2022-10-30T22:41:41.680Z,5.18
2022-10-30T22:44:10.870Z,3.67
2022-10-30T22:46:37.637Z,4.70
2022-10-30T22:49:04.247Z,6.00
2022-10-30T22:51:32.014Z,5.13
2022-10-30T22:53:59.485Z,3.65
2022-10-30T22:56:27.339Z,6.72
2022-10-30T22:58:54.472Z,2.38
2022-10-30T23:01:25.687Z,4.45
2022-10-30T23:03:53.012Z,3.75
2022-10-30T23:06:19.866Z,2.78
2022-10-30T23:08:46.866Z,2.42
2022-10-30T23:11:13.372Z,9.73
2022-10-30T23:13:40.605Z,4.25
2022-10-30T23:16:08.845Z,4.50
2022-10-30T23:18:35.330Z,4.78
2022-10-30T23:21:03.251Z,2.10
2022-10-30T23:23:29.907Z,3.88
2022-10-30T23:26:01.265Z,3.10
2022-10-30T23:28:27.777Z,6.22
2022-10-30T23:30:54.233Z,7.57
2022-10-30T23:33:20.705Z,5.35
2022-10-30T23:35:47.136Z,4.55
2022-10-30T23:38:13.585Z,5.22
2022-10-30T23:40:40.066Z,1.65
2022-10-30T23:43:06.609Z,3.45
2022-10-30T23:45:33.138Z,5.95
2022-10-30T23:47:59.807Z,3.30
2022-10-30T23:50:26.557Z,2.38
2022-10-30T23:52:52.976Z,3.90
2022-10-30T23:55:19.479Z,2.60
2022-10-30T23:57:47.448Z,5.78
